MSC Florentina — HPFH — position and weather

sailwx.info

Track history (hours):
 
Tides and Currents Weather Stations Pressure Air Temp Water Temp Dewpoint Dewpoint Depression Visibility Wind Speed Wind Dir Waves Ship Positions

MSC Florentina

Last reported at 2014-Dec-20 23:05 UTC. Time now 2014-Dec-23 03:45 UTC.
Position N 26°00' W 079°20'.

Length 300 m; draft 9 m.

Type: Ship (hazmat cat A). MMSI: 352870000.

Date/timePositionNaut miles runAvg speedWind from/ knotsBaromVisibWave heightAir tempDewpointWater temp
2014-Dec-20 23:05N 26°00' W 079°20'916.1
2014-Dec-20 22:33N 26°08' W 079°16'  
2014-Dec-13 02:10N 39°33' W 033°13'1318.3
2014-Dec-13 01:27N 39°37' W 032°57'3718.5
2014-Dec-12 23:28N 39°47' W 032°12'1718.2
2014-Dec-12 22:33N 39°51' W 031°51'1817.9
2014-Dec-12 21:33N 39°55' W 031°28'1818.3
2014-Dec-12 20:33N 39°58' W 031°04'2218.6
2014-Dec-12 19:21N 40°01' W 030°35'1518.6
2014-Dec-12 18:33N 40°04' W 030°16'1918.8
2014-Dec-12 17:33N 40°08' W 029°52'1818.2
2014-Dec-12 16:33N 40°11' W 029°29'2018.4
2014-Dec-12 15:27N 40°14' W 029°03'1618.1
2014-Dec-12 14:33N 40°16' W 028°42'  
Track history (hours):
 
Tides and Currents Weather Stations Pressure Air Temp Water Temp Dewpoint Dewpoint Depression Visibility Wind Speed Wind Dir Waves Ship Positions

MSC Florentina

Last reported at 2014-Dec-20 23:05 UTC. Time now 2014-Dec-23 03:45 UTC.
Position N 26°00' W 079°20'.

Length 300 m; draft 9 m.

Type: Ship (hazmat cat A). MMSI: 352870000.

Date/timePositionNaut miles runAvg speedWind from/ knotsBaromVisibWave heightAir tempDewpointWater temp
2014-Dec-20 23:05N 26°00' W 079°20'916.1
2014-Dec-20 22:33N 26°08' W 079°16'  
2014-Dec-13 02:10N 39°33' W 033°13'1318.3
2014-Dec-13 01:27N 39°37' W 032°57'3718.5
2014-Dec-12 23:28N 39°47' W 032°12'1718.2
2014-Dec-12 22:33N 39°51' W 031°51'1817.9
2014-Dec-12 21:33N 39°55' W 031°28'1818.3
2014-Dec-12 20:33N 39°58' W 031°04'2218.6
2014-Dec-12 19:21N 40°01' W 030°35'1518.6
2014-Dec-12 18:33N 40°04' W 030°16'1918.8
2014-Dec-12 17:33N 40°08' W 029°52'1818.2
2014-Dec-12 16:33N 40°11' W 029°29'2018.4
2014-Dec-12 15:27N 40°14' W 029°03'1618.1
2014-Dec-12 14:33N 40°16' W 028°42'  

Dump ship's entire track history